Time;durP1;ratioP1;P1;durP2;ratioP2;P2;SDS_P1;SDS_P2;PMS_P1;PMS_P2;Temp;Humidity;BMP_temperature;BMP_pressure;BME280_temperature;BME280_humidity;BME280_pressure;Samples;Min_cycle;Max_cycle;Signal;HPM_P1;HPM_P2
2022/10/06 00:01:18;;;;;;;5.50;2.70;;;14.40;74.70;14.50;97307.00;;;;5035233;28;20239;-80
2022/10/06 00:03:46;;;;;;;2.80;2.60;;;14.40;74.60;14.50;97307.00;;;;5050152;28;20199;-80
2022/10/06 00:06:17;;;;;;;3.00;2.43;;;14.40;74.70;14.50;97309.00;;;;5050719;28;20292;-81
2022/10/06 00:08:50;;;;;;;2.63;2.43;;;14.40;74.70;14.40;97310.00;;;;5053570;28;20677;-81
2022/10/06 00:11:22;;;;;;;2.70;2.50;;;14.30;74.80;14.40;97308.00;;;;5036998;28;20216;-81
2022/10/06 00:13:55;;;;;;;4.23;2.17;;;14.30;74.60;14.40;97314.00;;;;5055667;28;20231;-81
2022/10/06 00:16:27;;;;;;;2.40;2.20;;;14.30;74.70;14.40;97314.00;;;;5053924;28;20204;-81
2022/10/06 00:18:57;;;;;;;2.33;2.07;;;14.30;74.80;14.30;97310.00;;;;5055045;28;20208;-81
2022/10/06 00:21:28;;;;;;;2.67;2.47;;;14.20;74.70;14.30;97310.00;;;;5049637;28;20274;-81
2022/10/06 00:24:04;;;;;;;2.60;2.33;;;14.20;74.60;14.30;97315.00;;;;5053171;28;20199;-81
2022/10/06 00:26:31;;;;;;;2.40;2.27;;;14.20;74.70;14.30;97313.00;;;;5054557;28;20192;-81
2022/10/06 00:29:01;;;;;;;2.47;2.23;;;14.20;74.70;14.20;97317.00;;;;5055570;28;20239;-82
2022/10/06 00:31:28;;;;;;;2.40;2.20;;;14.10;74.60;14.20;97321.00;;;;5056258;28;20244;-82
2022/10/06 00:33:55;;;;;;;2.50;2.30;;;14.10;74.60;14.20;97325.00;;;;5055233;28;20197;-82
2022/10/06 00:36:22;;;;;;;2.47;2.27;;;14.10;74.70;14.20;97323.00;;;;5053002;28;20786;-82
2022/10/06 00:38:49;;;;;;;2.30;2.13;;;14.10;74.70;14.20;97324.00;;;;5054937;28;20235;-81
2022/10/06 00:41:18;;;;;;;2.33;2.13;;;14.10;74.70;14.20;97326.00;;;;5053026;28;20319;-82
2022/10/06 00:43:51;;;;;;;2.30;2.10;;;14.00;74.80;14.20;97327.00;;;;5052391;28;20701;-82
2022/10/06 00:46:32;;;;;;;2.60;2.40;;;14.00;74.80;14.10;97325.00;;;;5053059;28;20247;-81
2022/10/06 00:49:13;;;;;;;2.30;2.10;;;14.00;74.80;14.10;97326.00;;;;5054964;28;20587;-82
2022/10/06 00:51:45;;;;;;;2.27;2.17;;;14.00;74.80;14.10;97332.00;;;;5052909;28;20656;-82
2022/10/06 00:54:13;;;;;;;2.07;1.87;;;14.00;74.90;14.10;97327.00;;;;5055333;28;20223;-82
2022/10/06 00:56:42;;;;;;;2.00;1.90;;;13.90;74.90;14.10;97324.00;;;;5087606;22;20327;-85
2022/10/06 00:59:12;;;;;;;1.90;1.80;;;13.90;74.90;14.10;97329.00;;;;5059737;28;20199;-85
2022/10/06 01:01:49;;;;;;;2.00;1.90;;;13.90;75.70;14.00;97334.00;;;;5057546;28;20310;-86
2022/10/06 01:04:17;;;;;;;2.30;1.80;;;13.90;75.00;14.00;97337.00;;;;5071613;28;20542;-85
2022/10/06 01:06:50;;;;;;;4.10;1.83;;;13.90;75.00;14.00;97337.00;;;;5062034;28;20219;-85
2022/10/06 01:09:19;;;;;;;2.13;1.87;;;13.90;75.10;14.00;97330.00;;;;5067812;28;20204;-86
2022/10/06 01:11:52;;;;;;;1.77;1.67;;;13.80;75.10;14.00;97330.00;;;;5064830;28;20236;-86
2022/10/06 01:14:21;;;;;;;2.27;2.07;;;13.90;75.40;14.00;97333.00;;;;5061835;28;20236;-86
2022/10/06 01:16:56;;;;;;;5.63;2.30;;;13.80;75.50;14.00;97338.00;;;;5072486;28;20278;-86
2022/10/06 01:19:42;;;;;;;1.83;1.70;;;13.80;75.40;14.00;97326.00;;;;5069177;28;20287;-86
2022/10/06 01:22:13;;;;;;;2.17;1.87;;;13.80;75.40;13.90;97329.00;;;;5066288;28;20215;-85
2022/10/06 01:24:42;;;;;;;1.77;1.67;;;13.80;75.20;13.90;97337.00;;;;5051168;28;20229;-86
2022/10/06 01:27:12;;;;;;;1.90;1.80;;;13.80;75.90;13.90;97341.00;;;;5051305;28;20565;-86
2022/10/06 01:29:39;;;;;;;2.10;2.00;;;13.80;75.20;13.90;97338.00;;;;5050585;28;20224;-86
2022/10/06 01:32:07;;;;;;;2.40;2.20;;;13.80;75.10;13.90;97336.00;;;;5050997;28;20565;-86
2022/10/06 01:34:34;;;;;;;1.80;1.70;;;13.80;75.10;13.90;97337.00;;;;5051057;28;20288;-86
2022/10/06 01:37:01;;;;;;;1.70;1.60;;;13.70;75.00;13.80;97339.00;;;;5066111;28;20299;-86
2022/10/06 01:39:28;;;;;;;2.10;1.93;;;13.70;75.10;13.80;97344.00;;;;5054318;28;20432;-86
2022/10/06 01:41:56;;;;;;;2.30;2.10;;;13.70;75.00;13.80;97340.00;;;;5055061;28;20303;-86
2022/10/06 01:44:24;;;;;;;2.23;1.67;;;13.70;75.00;13.80;97345.00;;;;5061019;28;20631;-86
2022/10/06 01:46:51;;;;;;;2.03;1.93;;;13.70;74.90;13.80;97344.00;;;;5059773;28;20228;-87
2022/10/06 01:49:18;;;;;;;3.10;2.00;;;13.70;75.00;13.70;97351.00;;;;5071326;28;20196;-87
2022/10/06 01:51:46;;;;;;;2.50;2.30;;;13.60;74.90;13.70;97348.00;;;;5063518;28;20568;-86
2022/10/06 01:54:14;;;;;;;1.90;1.80;;;13.60;74.90;13.70;97352.00;;;;5062802;28;20700;-87
2022/10/06 01:56:41;;;;;;;1.80;1.70;;;13.60;74.90;13.70;97345.00;;;;5052948;28;20224;-86
2022/10/06 01:59:10;;;;;;;1.77;1.60;;;13.50;74.90;13.70;97354.00;;;;5054496;28;20205;-85
2022/10/06 02:01:37;;;;;;;3.80;2.00;;;13.60;75.00;13.60;97358.00;;;;5054726;28;20248;-86
2022/10/06 02:04:04;;;;;;;1.83;1.73;;;13.60;75.10;13.60;97357.00;;;;5054577;28;20303;-86
2022/10/06 02:06:31;;;;;;;2.10;1.73;;;13.50;75.00;13.60;97367.00;;;;5054291;28;20216;-86
2022/10/06 02:08:59;;;;;;;2.43;1.60;;;13.50;75.00;13.60;97358.00;;;;5056664;28;20196;-86
2022/10/06 02:11:27;;;;;;;1.73;1.63;;;13.50;75.00;13.60;97362.00;;;;5070834;28;20196;-86
2022/10/06 02:13:54;;;;;;;1.80;1.70;;;13.50;75.00;13.60;97364.00;;;;5065152;28;20232;-86
2022/10/06 02:16:22;;;;;;;1.70;1.60;;;13.50;75.00;13.60;97365.00;;;;5053598;28;20636;-86
2022/10/06 02:18:50;;;;;;;2.00;1.73;;;13.50;75.10;13.60;97369.00;;;;5055155;28;20728;-86
2022/10/06 02:21:20;;;;;;;2.00;1.80;;;13.50;75.20;13.50;97368.00;;;;5054911;28;20230;-86
2022/10/06 02:23:47;;;;;;;1.77;1.67;;;13.40;75.80;13.50;97376.00;;;;5053684;28;20189;-86
2022/10/06 02:26:16;;;;;;;1.70;1.60;;;13.40;75.10;13.50;97365.00;;;;5059489;28;20245;-87
2022/10/06 02:28:43;;;;;;;1.97;1.63;;;13.40;75.20;13.50;97366.00;;;;5072535;28;20188;-86
2022/10/06 02:31:11;;;;;;;2.00;1.40;;;13.40;75.10;13.50;97370.00;;;;5068454;28;20193;-87
2022/10/06 02:33:40;;;;;;;2.80;1.50;;;13.40;75.10;13.50;97370.00;;;;5053417;28;20658;-86
2022/10/06 02:36:11;;;;;;;1.20;1.10;;;13.40;75.10;13.40;97374.00;;;;5053496;28;20239;-86
2022/10/06 02:38:38;;;;;;;1.50;1.40;;;13.40;75.20;13.40;97377.00;;;;5066788;28;20223;-86
2022/10/06 02:41:06;;;;;;;1.63;1.53;;;13.40;75.20;13.40;97381.00;;;;5073566;28;20218;-86
2022/10/06 02:43:34;;;;;;;1.33;1.20;;;13.40;75.30;13.40;97385.00;;;;5054381;28;20219;-86
2022/10/06 02:46:04;;;;;;;1.60;1.50;;;13.30;75.30;13.40;97378.00;;;;5060973;28;20242;-86
2022/10/06 02:48:33;;;;;;;1.67;1.57;;;13.30;75.50;13.40;97379.00;;;;5057419;28;20211;-87
2022/10/06 02:51:05;;;;;;;1.77;1.60;;;13.30;75.50;13.40;97382.00;;;;5054332;28;20189;-86
2022/10/06 02:53:33;;;;;;;2.07;1.23;;;13.30;75.50;13.40;97381.00;;;;5052381;28;20280;-86
2022/10/06 02:56:00;;;;;;;1.67;1.57;;;13.30;75.50;13.40;97388.00;;;;5052964;28;20197;-86
2022/10/06 02:58:29;;;;;;;1.43;1.33;;;13.20;75.50;13.40;97391.00;;;;5053098;28;20224;-86
2022/10/06 03:01:01;;;;;;;1.33;1.23;;;13.20;75.60;13.40;97387.00;;;;5053709;28;20197;-86
2022/10/06 03:03:29;;;;;;;1.37;1.27;;;13.30;75.60;13.40;97391.00;;;;5054945;28;20669;-85
2022/10/06 03:06:02;;;;;;;1.90;1.50;;;13.30;76.40;13.40;97393.00;;;;5072926;28;20210;-86
2022/10/06 03:08:29;;;;;;;1.53;1.43;;;13.30;75.60;13.40;97402.00;;;;5072725;28;20227;-86
2022/10/06 03:11:01;;;;;;;1.80;1.70;;;13.30;75.60;13.40;97404.00;;;;5070907;28;20290;-86
2022/10/06 03:13:29;;;;;;;1.97;1.40;;;13.30;75.70;13.40;97400.00;;;;5060134;28;20199;-86
2022/10/06 03:15:57;;;;;;;1.60;1.50;;;13.30;76.00;13.40;97401.00;;;;5056860;28;20231;-87
2022/10/06 03:18:24;;;;;;;1.77;1.40;;;13.30;75.80;13.40;97406.00;;;;5052002;28;20566;-86
2022/10/06 03:20:52;;;;;;;1.90;1.80;;;13.30;75.90;13.40;97408.00;;;;5052052;28;20197;-86
2022/10/06 03:23:21;;;;;;;1.37;1.30;;;13.30;76.00;13.40;97406.00;;;;5061145;28;20723;-85
2022/10/06 03:25:56;;;;;;;1.30;1.20;;;13.30;76.00;13.40;97409.00;;;;5071418;28;20191;-87
2022/10/06 03:28:23;;;;;;;1.70;1.60;;;13.30;75.90;13.40;97410.00;;;;5069998;28;20192;-85
2022/10/06 03:30:50;;;;;;;1.50;1.33;;;13.30;75.80;13.30;97416.00;;;;5072878;28;20277;-86
2022/10/06 03:33:17;;;;;;;2.03;1.30;;;13.30;75.90;13.30;97421.00;;;;5062996;28;20197;-85
2022/10/06 03:35:44;;;;;;;1.83;1.73;;;13.20;75.80;13.30;97423.00;;;;5052296;28;20287;-87
2022/10/06 03:38:11;;;;;;;1.50;1.40;;;13.20;75.80;13.30;97420.00;;;;5052624;28;20211;-86
2022/10/06 03:40:40;;;;;;;2.47;1.47;;;13.20;75.80;13.30;97427.00;;;;5058912;28;20201;-86
2022/10/06 03:43:10;;;;;;;2.17;1.50;;;13.20;75.70;13.30;97427.00;;;;5055447;28;20254;-86
2022/10/06 03:45:37;;;;;;;2.13;1.27;;;13.20;75.70;13.30;97431.00;;;;5058050;28;20189;-86
2022/10/06 03:48:04;;;;;;;1.60;1.50;;;13.20;75.70;13.30;97429.00;;;;5071721;28;20306;-86
2022/10/06 03:50:31;;;;;;;1.47;1.37;;;13.20;75.60;13.30;97439.00;;;;5071390;28;20206;-86
2022/10/06 03:52:58;;;;;;;1.80;1.40;;;13.20;75.70;13.30;97434.00;;;;5059840;28;20753;-86
2022/10/06 03:55:25;;;;;;;1.67;1.53;;;13.20;75.60;13.30;97439.00;;;;5064928;28;20568;-86
2022/10/06 03:57:56;;;;;;;1.47;1.30;;;13.20;75.50;13.30;97430.00;;;;5052010;28;21028;-86
2022/10/06 04:00:23;;;;;;;1.30;1.20;;;13.10;75.50;13.30;97431.00;;;;5051163;28;20569;-86
2022/10/06 04:02:50;;;;;;;1.80;1.30;;;13.20;75.50;13.20;97445.00;;;;5063369;28;20666;-87
2022/10/06 04:05:17;;;;;;;1.30;1.20;;;13.10;75.40;13.20;97441.00;;;;5064901;28;20203;-87
2022/10/06 04:07:44;;;;;;;1.20;1.13;;;13.10;75.50;13.20;97441.00;;;;5052128;28;20493;-87
2022/10/06 04:10:11;;;;;;;1.53;1.40;;;13.10;75.40;13.20;97444.00;;;;5051958;28;20196;-86
2022/10/06 04:12:38;;;;;;;1.37;1.27;;;13.10;75.40;13.20;97448.00;;;;5056657;28;20196;-87
2022/10/06 04:15:08;;;;;;;1.43;1.33;;;13.00;75.40;13.20;97449.00;;;;5052748;28;20296;-86
2022/10/06 04:17:35;;;;;;;1.67;1.57;;;13.10;75.50;13.20;97448.00;;;;5051534;28;20658;-87
2022/10/06 04:20:04;;;;;;;1.70;1.60;;;13.10;75.50;13.10;97451.00;;;;5051206;28;20217;-86
2022/10/06 04:22:31;;;;;;;1.63;1.53;;;13.00;75.50;13.10;97454.00;;;;5052042;28;20223;-85
2022/10/06 04:24:58;;;;;;;1.80;1.70;;;13.00;75.50;13.10;97460.00;;;;5062271;28;20242;-87
2022/10/06 04:27:27;;;;;;;2.27;1.80;;;13.00;75.50;13.10;97463.00;;;;5071369;28;20251;-86
2022/10/06 04:29:55;;;;;;;2.33;2.13;;;13.00;75.60;13.10;97474.00;;;;5063936;28;20196;-86
2022/10/06 04:32:23;;;;;;;2.40;2.20;;;13.00;75.60;13.10;97463.00;;;;5051925;28;20212;-87
2022/10/06 04:34:50;;;;;;;2.50;2.30;;;13.00;75.60;13.10;97468.00;;;;5068857;28;20215;-87
2022/10/06 04:37:17;;;;;;;2.17;2.03;;;13.00;75.60;13.10;97473.00;;;;5052557;28;20219;-86
2022/10/06 04:39:44;;;;;;;2.60;2.40;;;13.00;75.60;13.10;97471.00;;;;5050650;28;20280;-86
2022/10/06 04:42:11;;;;;;;2.50;2.30;;;13.00;75.60;13.10;97464.00;;;;5049873;28;20420;-86
2022/10/06 04:44:38;;;;;;;2.90;2.70;;;13.00;75.60;13.10;97480.00;;;;5057515;28;20198;-87
2022/10/06 04:47:06;;;;;;;2.80;2.57;;;13.00;76.30;13.10;97484.00;;;;5054375;28;20220;-86
2022/10/06 04:49:34;;;;;;;2.60;2.30;;;13.00;75.70;13.10;97483.00;;;;5052008;28;20193;-86
2022/10/06 04:52:01;;;;;;;2.77;2.57;;;13.00;75.70;13.10;97481.00;;;;5050849;28;20762;-87
2022/10/06 04:54:29;;;;;;;2.90;2.70;;;12.90;75.60;13.10;97489.00;;;;5066541;28;20228;-86
2022/10/06 04:56:56;;;;;;;2.63;2.33;;;13.00;75.80;13.10;97492.00;;;;5055554;28;20508;-87
2022/10/06 05:00:21;;;;;;;2.77;2.50;;;12.90;75.70;13.10;97491.00;;;;5051333;28;20279;-86
2022/10/06 05:02:10;;;;;;;2.10;2.00;;;13.00;75.80;13.00;97495.00;;;;5050366;28;20701;-86
2022/10/06 05:04:39;;;;;;;2.57;2.37;;;12.90;75.70;13.00;97489.00;;;;5052745;28;20291;-86
2022/10/06 05:07:07;;;;;;;2.17;2.07;;;12.90;75.90;13.00;97504.00;;;;5068447;28;20712;-85
2022/10/06 05:09:34;;;;;;;2.47;2.27;;;12.90;76.00;13.00;97494.00;;;;5054783;28;20199;-86
2022/10/06 05:12:01;;;;;;;2.67;1.83;;;12.90;75.90;13.00;97502.00;;;;5053226;28;20740;-87
2022/10/06 05:14:28;;;;;;;2.10;1.90;;;12.90;76.00;13.00;97502.00;;;;5058457;28;20197;-86
2022/10/06 05:16:55;;;;;;;2.33;2.13;;;12.90;76.10;13.00;97513.00;;;;5068253;28;20735;-86
2022/10/06 05:19:22;;;;;;;2.20;2.07;;;12.90;76.20;13.00;97512.00;;;;5057538;28;20204;-86
2022/10/06 05:21:50;;;;;;;1.80;1.70;;;12.90;76.20;13.00;97513.00;;;;5054612;28;20709;-87
2022/10/06 05:24:18;;;;;;;1.90;1.80;;;12.90;76.10;13.00;97517.00;;;;5054499;28;20197;-86
2022/10/06 05:26:45;;;;;;;2.00;1.90;;;12.90;76.10;13.10;97516.00;;;;5062203;28;20216;-86
2022/10/06 05:29:12;;;;;;;2.17;1.97;;;12.90;76.10;13.00;97520.00;;;;5055460;28;20199;-85
2022/10/06 05:31:41;;;;;;;2.00;1.90;;;12.90;76.10;13.10;97520.00;;;;5058403;28;20589;-83
2022/10/06 05:34:09;;;;;;;1.80;1.70;;;12.90;76.10;13.10;97524.00;;;;5076023;28;20210;-84
2022/10/06 05:36:36;;;;;;;3.07;1.80;;;12.90;76.20;13.10;97528.00;;;;5075183;28;20223;-83
2022/10/06 05:39:05;;;;;;;1.60;1.50;;;12.90;76.20;13.20;97535.00;;;;5075046;28;20303;-83
2022/10/06 05:41:36;;;;;;;2.40;1.70;;;12.90;76.20;13.20;97531.00;;;;5075610;28;20196;-84
2022/10/06 05:44:04;;;;;;;1.80;1.70;;;13.00;76.20;13.20;97538.00;;;;5065239;28;20663;-84
2022/10/06 05:46:33;;;;;;;2.03;1.93;;;13.00;76.30;13.20;97539.00;;;;5068648;28;20220;-84
2022/10/06 05:49:02;;;;;;;2.97;1.50;;;13.00;76.40;13.20;97545.00;;;;5066070;28;20287;-83
2022/10/06 05:51:32;;;;;;;1.60;1.50;;;13.00;76.40;13.20;97543.00;;;;5055158;28;20608;-85
2022/10/06 05:54:00;;;;;;;1.50;1.40;;;13.00;77.10;13.30;97549.00;;;;5054383;28;20228;-84
2022/10/06 05:56:31;;;;;;;1.63;1.53;;;13.00;76.40;13.30;97550.00;;;;5058480;28;20224;-82
2022/10/06 05:58:59;;;;;;;3.03;1.83;;;13.00;76.60;13.30;97562.00;;;;5054106;28;20197;-83
2022/10/06 06:01:28;;;;;;;1.60;1.50;;;13.00;76.60;13.30;97559.00;;;;5054210;28;20249;-84
2022/10/06 06:03:59;;;;;;;1.90;1.80;;;13.00;76.70;13.30;97565.00;;;;5055494;28;20237;-85
2022/10/06 06:06:28;;;;;;;1.80;1.70;;;13.10;76.80;13.30;97568.00;;;;5068822;28;20289;-84
2022/10/06 06:08:58;;;;;;;1.67;1.57;;;13.10;77.60;13.40;97575.00;;;;5072829;28;20579;-84
2022/10/06 06:11:26;;;;;;;2.13;1.73;;;13.10;76.90;13.40;97573.00;;;;5061703;28;20197;-84
2022/10/06 06:13:57;;;;;;;2.00;1.90;;;13.10;77.00;13.40;97581.00;;;;5055418;28;20199;-84
2022/10/06 06:16:24;;;;;;;6.30;1.60;;;13.20;77.10;13.40;97589.00;;;;5053243;28;20220;-83
2022/10/06 06:18:52;;;;;;;3.97;1.60;;;13.20;77.20;13.50;97585.00;;;;5054831;28;20197;-84
2022/10/06 06:21:19;;;;;;;1.77;1.50;;;13.10;77.10;13.50;97589.00;;;;5055110;28;20192;-84
2022/10/06 06:23:47;;;;;;;1.50;1.40;;;13.20;78.10;13.50;97595.00;;;;5059177;28;20224;-83
2022/10/06 06:26:17;;;;;;;1.83;1.60;;;13.20;77.60;13.50;97606.00;;;;5071087;28;20222;-83
2022/10/06 06:28:46;;;;;;;1.90;1.80;;;13.30;77.80;13.60;97605.00;;;;5076947;28;20268;-84
2022/10/06 06:31:18;;;;;;;3.53;1.70;;;13.30;77.90;13.60;97606.00;;;;5069749;28;20204;-84
2022/10/06 06:33:50;;;;;;;2.57;1.73;;;13.30;78.00;13.70;97608.00;;;;5054244;28;20235;-85
2022/10/06 06:36:20;;;;;;;2.23;1.90;;;13.30;78.80;13.70;97609.00;;;;5054086;28;20724;-84
2022/10/06 06:38:50;;;;;;;1.70;1.60;;;13.40;78.40;13.80;97614.00;;;;5074639;28;20235;-83
2022/10/06 06:41:20;;;;;;;2.00;1.90;;;13.50;78.60;13.80;97620.00;;;;5073790;28;20230;-85
2022/10/06 06:43:48;;;;;;;1.70;1.60;;;13.50;78.70;13.90;97624.00;;;;5074471;28;20220;-84
2022/10/06 06:46:19;;;;;;;1.90;1.80;;;13.50;78.90;13.90;97625.00;;;;5074497;28;20216;-86
2022/10/06 06:48:48;;;;;;;1.80;1.70;;;13.60;79.30;14.00;97630.00;;;;5063754;28;20225;-85
2022/10/06 06:51:15;;;;;;;1.87;1.60;;;13.60;79.40;14.10;97633.00;;;;5054957;28;20614;-84
2022/10/06 06:53:42;;;;;;;1.93;1.73;;;13.70;79.70;14.20;97645.00;;;;5055039;28;20200;-84
2022/10/06 06:56:10;;;;;;;2.90;1.70;;;13.80;79.80;14.20;97646.00;;;;5054499;28;20255;-84
2022/10/06 06:58:38;;;;;;;3.00;1.80;;;13.80;80.00;14.30;97647.00;;;;5054884;28;20565;-84
2022/10/06 07:01:07;;;;;;;2.70;1.87;;;13.90;80.30;14.40;97662.00;;;;5062941;28;20204;-84
2022/10/06 07:03:38;;;;;;;3.53;2.23;;;14.00;80.40;14.50;97662.00;;;;5074674;28;20226;-84
2022/10/06 07:06:08;;;;;;;2.67;2.47;;;14.10;80.50;14.60;97665.00;;;;5069523;28;20278;-83
2022/10/06 07:08:37;;;;;;;3.67;1.93;;;14.10;80.60;14.70;97662.00;;;;5081114;22;20185;-86
2022/10/06 07:11:16;;;;;;;4.20;2.00;;;14.20;80.70;14.80;97676.00;;;;5072687;28;20283;-88
2022/10/06 07:13:44;;;;;;;2.80;2.20;;;14.30;81.00;14.90;97682.00;;;;5063280;28;20236;-87
2022/10/06 07:27:20;;;;;;;2.43;2.17;;;14.80;82.30;15.30;97692.00;;;;5052399;28;20291;-87
2022/10/06 07:29:52;;;;;;;2.37;1.97;;;14.90;81.70;15.40;97689.00;;;;5052980;28;20216;-87
2022/10/06 07:32:20;;;;;;;2.23;2.13;;;14.90;81.90;15.50;97695.00;;;;5053178;28;20287;-87
2022/10/06 07:34:49;;;;;;;1.97;1.87;;;15.00;82.80;15.60;97699.00;;;;5051860;28;20208;-87
2022/10/06 07:37:17;;;;;;;2.27;1.90;;;15.10;82.30;15.80;97707.00;;;;5053085;28;20211;-87
2022/10/06 07:39:46;;;;;;;2.57;2.00;;;15.20;82.50;15.90;97698.00;;;;5052889;28;20307;-87
2022/10/06 07:42:14;;;;;;;2.10;2.00;;;15.30;82.60;16.10;97700.00;;;;5052365;28;20200;-87
2022/10/06 07:44:42;;;;;;;1.73;1.63;;;15.50;82.90;16.20;97702.00;;;;5068002;28;20230;-87
2022/10/06 07:47:09;;;;;;;2.67;1.90;;;15.60;82.90;16.40;97704.00;;;;5066136;28;20200;-87
2022/10/06 07:49:36;;;;;;;1.70;1.60;;;15.70;82.90;16.50;97707.00;;;;5053243;28;20370;-87
2022/10/06 07:52:05;;;;;;;1.60;1.50;;;15.90;82.90;16.70;97718.00;;;;5052552;28;20259;-87
2022/10/06 07:54:32;;;;;;;1.50;1.40;;;16.00;83.00;16.80;97711.00;;;;5052773;28;20286;-87
2022/10/06 07:56:59;;;;;;;1.50;1.30;;;16.10;83.10;17.00;97708.00;;;;5052013;28;20208;-88
2022/10/06 07:59:26;;;;;;;2.13;1.43;;;16.30;83.10;17.10;97724.00;;;;5052849;28;20671;-87
2022/10/06 08:01:54;;;;;;;1.70;1.60;;;16.40;83.00;17.30;97720.00;;;;5052580;28;20288;-88
2022/10/06 08:04:21;;;;;;;1.60;1.50;;;16.50;82.80;17.40;97726.00;;;;5051593;28;20726;-87
2022/10/06 08:06:48;;;;;;;1.50;1.40;;;16.70;82.90;17.50;97726.00;;;;5052311;28;20250;-88
2022/10/06 08:09:16;;;;;;;2.20;1.30;;;16.80;82.90;17.70;97736.00;;;;5051855;28;20252;-87
2022/10/06 08:11:46;;;;;;;1.40;1.10;;;17.00;82.90;17.90;97730.00;;;;5052063;28;20284;-87
2022/10/06 08:14:13;;;;;;;2.17;1.50;;;17.10;82.90;18.00;97738.00;;;;5052503;28;20228;-87
2022/10/06 08:16:41;;;;;;;1.60;1.50;;;17.20;82.70;18.20;97740.00;;;;5056439;28;20298;-87
2022/10/06 08:19:08;;;;;;;2.70;1.70;;;17.40;82.50;18.30;97736.00;;;;5060292;28;20311;-87
2022/10/06 08:21:35;;;;;;;1.90;1.20;;;17.50;82.30;18.50;97731.00;;;;5058586;28;20294;-87
2022/10/06 08:24:03;;;;;;;2.10;2.00;;;17.70;82.30;18.70;97737.00;;;;5051707;28;20230;-87
2022/10/06 08:26:33;;;;;;;1.63;1.53;;;17.80;82.40;18.80;97743.00;;;;5055425;28;20232;-87
2022/10/06 08:29:01;;;;;;;1.97;1.70;;;18.00;82.50;19.00;97742.00;;;;5064552;28;20222;-87
2022/10/06 08:31:30;;;;;;;3.03;1.53;;;18.10;82.10;19.10;97743.00;;;;5070756;28;20656;-87
2022/10/06 08:33:58;;;;;;;1.83;1.40;;;18.30;82.00;19.30;97745.00;;;;5059078;28;20287;-87
2022/10/06 08:36:27;;;;;;;1.47;1.20;;;18.40;82.20;19.50;97751.00;;;;5052113;28;20207;-87
2022/10/06 08:38:54;;;;;;;1.50;1.40;;;18.60;82.00;19.60;97755.00;;;;5051618;28;20303;-87
2022/10/06 08:41:26;;;;;;;1.13;1.10;;;18.70;81.70;19.80;97754.00;;;;5065389;28;20200;-87
2022/10/06 08:44:03;;;;;;;2.57;1.57;;;18.90;81.80;20.00;97761.00;;;;5051637;28;20248;-87
2022/10/06 08:46:38;;;;;;;1.77;1.00;;;19.10;80.60;20.20;97759.00;;;;5061973;28;20230;-87
2022/10/06 08:49:08;;;;;;;1.30;1.20;;;19.20;80.70;20.30;97757.00;;;;5068490;28;20308;-87
2022/10/06 08:52:00;;;;;;;1.10;1.00;;;19.40;79.70;20.50;97767.00;;;;5056494;28;20208;-87
2022/10/06 08:54:35;;;;;;;1.90;1.23;;;19.60;78.80;20.60;97761.00;;;;5055359;28;20472;-87
2022/10/06 08:57:17;;;;;;;1.77;1.10;;;19.80;79.00;20.70;97759.00;;;;5055077;28;20192;-87
2022/10/06 08:59:51;;;;;;;1.23;1.00;;;19.90;77.90;20.80;97767.00;;;;5055316;28;20653;-88
2022/10/06 09:02:30;;;;;;;1.63;1.07;;;20.00;77.50;20.90;97771.00;;;;5055194;28;20649;-87
2022/10/06 09:05:01;;;;;;;0.90;0.90;;;20.20;77.20;21.00;97766.00;;;;5055184;28;20299;-88
2022/10/06 09:07:42;;;;;;;2.33;1.10;;;20.20;77.10;21.20;97768.00;;;;5068399;28;20242;-87
2022/10/06 09:10:41;;;;;;;3.30;0.83;;;20.40;76.90;21.30;97771.00;;;;5075890;28;20579;-87
2022/10/06 09:13:15;;;;;;;1.70;1.40;;;20.50;76.20;21.40;97779.00;;;;5057364;28;20304;-88
2022/10/06 09:15:51;;;;;;;2.90;1.20;;;20.60;76.00;21.50;97775.00;;;;5060786;28;20203;-88
2022/10/06 09:18:26;;;;;;;1.13;1.03;;;20.70;75.70;21.60;97775.00;;;;5075814;28;20692;-88
2022/10/06 09:21:00;;;;;;;1.90;0.80;;;20.80;75.60;21.70;97773.00;;;;5076797;28;20610;-87
2022/10/06 09:23:49;;;;;;;2.17;0.97;;;20.90;75.00;21.80;97775.00;;;;5074653;28;20223;-88
2022/10/06 09:26:21;;;;;;;1.30;1.20;;;21.00;74.50;21.90;97774.00;;;;5075271;28;20727;-88
2022/10/06 09:28:48;;;;;;;2.27;1.07;;;21.10;74.90;22.00;97771.00;;;;5072421;28;20231;-88
2022/10/06 09:31:22;;;;;;;3.10;0.97;;;21.20;75.00;22.20;97775.00;;;;5055803;28;20200;-88
2022/10/06 09:33:54;;;;;;;2.57;0.70;;;21.40;74.10;22.20;97782.00;;;;5055964;28;20203;-88
2022/10/06 09:36:23;;;;;;;1.07;0.90;;;21.40;73.90;22.30;97777.00;;;;5074865;28;20196;-88
2022/10/06 09:38:53;;;;;;;0.87;0.87;;;21.50;73.70;22.40;97778.00;;;;5075471;28;20227;-87
2022/10/06 09:41:25;;;;;;;1.33;0.83;;;21.60;72.70;22.40;97782.00;;;;5056223;28;20200;-87
2022/10/06 09:43:57;;;;;;;0.83;0.83;;;21.60;72.30;22.50;97783.00;;;;5055039;28;20256;-88
2022/10/06 09:46:33;;;;;;;1.20;1.10;;;21.70;72.00;22.50;97784.00;;;;5054414;28;20200;-87
2022/10/06 09:49:19;;;;;;;1.00;0.90;;;21.80;71.50;22.60;97776.00;;;;5055016;28;20228;-87
2022/10/06 09:52:11;;;;;;;1.70;1.00;;;21.90;71.10;22.70;97780.00;;;;5067989;28;20614;-87
2022/10/06 09:54:40;;;;;;;0.77;0.77;;;22.00;70.80;22.80;97786.00;;;;5074907;28;20184;-88
2022/10/06 09:57:14;;;;;;;1.23;1.13;;;22.10;71.90;22.90;97786.00;;;;5059438;28;20429;-88
2022/10/06 09:59:44;;;;;;;2.30;1.10;;;22.20;71.50;23.00;97783.00;;;;5073946;28;20283;-87
2022/10/06 10:02:35;;;;;;;1.70;1.20;;;22.30;71.10;23.00;97779.00;;;;5073648;28;20623;-87
2022/10/06 10:05:05;;;;;;;2.73;1.43;;;22.40;70.00;23.10;97789.00;;;;5074456;28;20708;-88
2022/10/06 10:07:36;;;;;;;1.30;1.13;;;22.40;70.90;23.10;97786.00;;;;5063111;28;20672;-87
2022/10/06 10:10:27;;;;;;;1.30;0.87;;;22.50;70.20;23.20;97783.00;;;;5054571;28;20232;-88
2022/10/06 10:12:56;;;;;;;1.80;1.20;;;22.60;69.60;23.30;97778.00;;;;5034301;28;20203;-87
2022/10/06 10:15:34;;;;;;;1.13;0.83;;;22.60;70.00;23.30;97784.00;;;;5058016;28;20212;-88
2022/10/06 10:18:11;;;;;;;1.53;0.80;;;22.70;69.50;23.40;97789.00;;;;5069973;28;20228;-87
2022/10/06 10:20:50;;;;;;;2.03;1.00;;;22.70;69.60;23.40;97783.00;;;;5064484;28;20228;-87
2022/10/06 10:23:28;;;;;;;1.87;0.93;;;22.80;69.50;23.50;97788.00;;;;5075524;28;20203;-87
2022/10/06 10:26:13;;;;;;;0.93;0.90;;;22.80;68.70;23.50;97789.00;;;;5084848;28;20192;-87
2022/10/06 10:29:18;;;;;;;0.83;0.83;;;22.90;68.30;23.60;97788.00;;;;5077358;28;20207;-87
2022/10/06 10:32:01;;;;;;;1.50;0.87;;;22.90;68.70;23.70;97798.00;;;;5063378;28;20224;-87
2022/10/06 10:35:01;;;;;;;3.80;0.93;;;22.90;68.30;23.70;97791.00;;;;5069135;28;20205;-87
2022/10/06 10:37:42;;;;;;;2.73;0.97;;;23.00;67.80;23.70;97797.00;;;;5072077;28;20575;-87
2022/10/06 10:40:25;;;;;;;1.50;0.80;;;23.00;68.50;23.80;97799.00;;;;5071403;28;20223;-87
2022/10/06 10:43:09;;;;;;;1.83;0.73;;;23.10;68.20;23.80;97797.00;;;;5081796;28;20187;-87
2022/10/06 10:45:46;;;;;;;1.20;0.87;;;23.20;67.80;23.90;97807.00;;;;5068257;28;20356;-87
2022/10/06 10:48:21;;;;;;;0.80;0.80;;;23.10;68.30;23.90;97808.00;;;;5084100;28;20279;-87
2022/10/06 10:51:00;;;;;;;1.37;0.87;;;23.20;69.40;23.90;97802.00;;;;5087856;28;20224;-87
2022/10/06 10:53:38;;;;;;;1.00;0.70;;;23.30;68.20;24.00;97800.00;;;;5071514;28;20220;-87
2022/10/06 10:56:11;;;;;;;2.07;1.00;;;23.30;67.70;24.00;97801.00;;;;5064824;28;20202;-87
2022/10/06 10:58:41;;;;;;;1.23;0.63;;;23.30;67.70;24.00;97800.00;;;;5063174;28;20230;-87
2022/10/06 11:01:25;;;;;;;0.80;0.80;;;23.30;67.40;24.00;97803.00;;;;5064440;28;20729;-87
2022/10/06 11:03:56;;;;;;;2.10;0.70;;;23.30;66.50;24.00;97796.00;;;;5060427;28;20299;-87
2022/10/06 11:07:06;;;;;;;0.80;0.80;;;23.40;66.80;24.10;97801.00;;;;5063337;28;20177;-87
2022/10/06 11:09:44;;;;;;;2.63;1.20;;;23.40;66.00;24.10;97801.00;;;;5048508;28;20598;-87
2022/10/06 11:12:41;;;;;;;1.30;1.00;;;23.40;66.10;24.10;97801.00;;;;5080869;28;20689;-87
2022/10/06 11:15:22;;;;;;;1.00;0.90;;;23.50;65.60;24.10;97797.00;;;;5088025;28;20732;-87
2022/10/06 11:17:58;;;;;;;2.23;0.87;;;23.50;65.70;24.00;97799.00;;;;5066273;28;20687;-87
2022/10/06 11:20:47;;;;;;;1.73;1.17;;;23.40;65.80;24.00;97795.00;;;;5066331;28;20219;-87
2022/10/06 11:23:46;;;;;;;2.07;1.00;;;23.50;64.90;24.00;97794.00;;;;5065325;28;20228;-87